createdAt,value
2023-07-25T00:00:07.828Z,9.18
2023-07-25T00:02:39.474Z,8.95
2023-07-25T00:05:11.563Z,9.48
2023-07-25T00:07:42.960Z,8.27
2023-07-25T00:10:14.284Z,8.07
2023-07-25T00:12:46.112Z,8.75
2023-07-25T00:15:17.490Z,7.72
2023-07-25T00:17:49.026Z,9.33
2023-07-25T00:20:20.555Z,8.65
2023-07-25T00:22:52.290Z,10.02
2023-07-25T00:25:23.894Z,8.27
2023-07-25T00:27:55.479Z,8.35
2023-07-25T00:30:27.693Z,7.95
2023-07-25T00:32:59.185Z,7.90
2023-07-25T00:35:30.571Z,6.85
2023-07-25T00:38:02.087Z,7.32
2023-07-25T00:40:33.622Z,7.35
2023-07-25T00:43:05.164Z,6.97
2023-07-25T00:45:37.119Z,7.47
2023-07-25T00:48:08.823Z,7.10
2023-07-25T00:53:12.336Z,7.68
2023-07-25T00:55:43.795Z,6.80
2023-07-25T00:58:15.572Z,6.10
2023-07-25T01:00:49.918Z,6.63
2023-07-25T01:03:21.407Z,6.40
2023-07-25T01:05:53.516Z,7.25
2023-07-25T01:08:25.430Z,6.57
2023-07-25T01:10:56.873Z,6.18
2023-07-25T01:15:59.837Z,6.50
2023-07-25T01:18:31.935Z,6.55
2023-07-25T01:21:03.466Z,6.72
2023-07-25T01:23:35.410Z,6.28
2023-07-25T01:26:06.767Z,6.55
2023-07-25T01:28:39.893Z,5.68
2023-07-25T01:31:11.380Z,5.82
2023-07-25T01:33:43.092Z,5.72
2023-07-25T01:36:14.443Z,5.75
2023-07-25T01:38:45.959Z,5.30
2023-07-25T01:41:17.402Z,5.80
2023-07-25T01:43:48.954Z,5.75
2023-07-25T01:46:20.296Z,5.45
2023-07-25T01:48:51.932Z,5.50
2023-07-25T01:51:23.373Z,5.93
2023-07-25T01:53:56.621Z,5.68
2023-07-25T01:56:28.156Z,4.88
2023-07-25T02:01:31.342Z,5.30
2023-07-25T02:06:33.685Z,4.75
2023-07-25T02:09:05.478Z,5.10
2023-07-25T02:11:36.789Z,5.93
2023-07-25T02:14:08.561Z,5.95
2023-07-25T02:16:40.337Z,4.93
2023-07-25T02:19:11.919Z,5.20
2023-07-25T02:21:43.236Z,4.90
2023-07-25T02:24:14.756Z,4.20
2023-07-25T02:26:46.165Z,4.68
2023-07-25T02:29:17.586Z,4.80
2023-07-25T02:31:49.301Z,4.43
2023-07-25T02:34:20.776Z,4.50
2023-07-25T02:36:52.415Z,5.03
2023-07-25T02:39:23.846Z,4.47
2023-07-25T02:41:55.256Z,4.55
2023-07-25T02:44:26.809Z,4.60
2023-07-25T02:46:58.175Z,4.28
2023-07-25T02:49:29.568Z,4.65
2023-07-25T02:52:00.929Z,4.22
2023-07-25T02:54:32.410Z,4.80
2023-07-25T02:57:03.777Z,4.82
2023-07-25T02:59:35.677Z,5.15
2023-07-25T03:02:07.531Z,5.25
2023-07-25T03:04:39.309Z,4.65
2023-07-25T03:07:10.706Z,5.13
2023-07-25T03:09:43.062Z,4.13
2023-07-25T03:12:14.321Z,4.20
2023-07-25T03:14:46.144Z,4.78
2023-07-25T03:17:17.411Z,4.97
2023-07-25T03:19:48.930Z,4.65
2023-07-25T03:22:23.617Z,4.80
2023-07-25T03:24:55.262Z,3.72
2023-07-25T03:27:27.760Z,4.25
2023-07-25T03:29:59.349Z,4.30
2023-07-25T03:32:30.738Z,4.15
2023-07-25T03:35:02.199Z,4.18
2023-07-25T03:37:33.807Z,4.47
2023-07-25T03:40:05.611Z,4.28
2023-07-25T03:45:08.540Z,4.18
2023-07-25T03:50:11.090Z,4.32
2023-07-25T03:52:42.578Z,3.72
2023-07-25T03:55:14.222Z,4.55
2023-07-25T03:57:45.547Z,3.58
2023-07-25T04:00:17.552Z,3.70
2023-07-25T04:03:00.745Z,3.88
2023-07-25T04:05:41.029Z,3.70
2023-07-25T04:08:12.474Z,3.63
2023-07-25T04:10:44.070Z,4.15
2023-07-25T04:13:15.648Z,3.80
2023-07-25T04:15:47.967Z,3.47
2023-07-25T04:18:19.351Z,3.38
2023-07-25T04:20:50.749Z,3.40
2023-07-25T04:23:24.470Z,4.07
2023-07-25T04:25:55.923Z,3.30
2023-07-25T04:28:28.187Z,3.15
2023-07-25T04:31:00.761Z,3.60
2023-07-25T04:33:32.252Z,3.42
2023-07-25T04:36:03.727Z,3.10
2023-07-25T04:38:35.157Z,3.35
2023-07-25T04:41:06.818Z,3.20
2023-07-25T04:43:46.597Z,2.83
2023-07-25T04:46:18.220Z,2.80
2023-07-25T04:48:49.838Z,3.45
2023-07-25T04:51:21.431Z,3.53
2023-07-25T04:53:53.135Z,3.25
2023-07-25T04:56:24.693Z,3.55
2023-07-25T04:58:55.987Z,3.78
2023-07-25T05:01:30.484Z,3.15
2023-07-25T05:04:03.637Z,3.63
2023-07-25T05:06:35.250Z,3.38
2023-07-25T05:09:27.077Z,3.03
2023-07-25T05:12:00.142Z,2.92
2023-07-25T05:14:31.416Z,2.80
2023-07-25T05:17:03.335Z,3.55
2023-07-25T05:19:34.952Z,3.60
2023-07-25T05:22:06.461Z,2.83
2023-07-25T05:24:38.062Z,2.83
2023-07-25T05:27:09.714Z,2.53
2023-07-25T05:29:41.503Z,2.70
2023-07-25T05:34:44.123Z,3.20
2023-07-25T05:37:15.559Z,2.65
2023-07-25T05:39:47.294Z,3.28
2023-07-25T05:44:49.712Z,2.83
2023-07-25T05:47:21.445Z,3.17
2023-07-25T05:49:53.434Z,2.53
2023-07-25T05:54:56.182Z,2.88
2023-07-25T05:57:27.777Z,2.30
2023-07-25T05:59:59.181Z,2.55
2023-07-25T06:02:30.648Z,3.00
2023-07-25T06:05:02.039Z,2.65
2023-07-25T06:07:33.560Z,2.63
2023-07-25T06:10:04.913Z,2.67
2023-07-25T06:12:36.519Z,2.65
2023-07-25T06:15:08.566Z,3.38
2023-07-25T06:17:40.490Z,2.95
2023-07-25T06:20:12.394Z,2.42
2023-07-25T06:22:43.973Z,2.53
2023-07-25T06:25:17.255Z,3.13
2023-07-25T06:27:48.699Z,2.88
2023-07-25T06:30:20.054Z,2.72
2023-07-25T06:32:53.811Z,3.10
2023-07-25T06:35:26.465Z,3.53
2023-07-25T06:37:57.943Z,2.55
2023-07-25T06:40:29.318Z,2.72
2023-07-25T06:43:00.912Z,3.33
2023-07-25T06:45:32.582Z,2.63
2023-07-25T06:48:04.114Z,2.95
2023-07-25T06:50:35.960Z,3.20
2023-07-25T06:55:40.124Z,2.90
2023-07-25T06:58:13.716Z,2.83
2023-07-25T07:00:48.174Z,2.78
2023-07-25T07:03:19.704Z,2.60
2023-07-25T07:06:00.199Z,3.63
2023-07-25T07:08:31.807Z,3.05
2023-07-25T07:11:03.069Z,3.28
2023-07-25T07:13:34.587Z,3.63
2023-07-25T07:16:06.069Z,2.53
2023-07-25T07:18:38.367Z,3.70
2023-07-25T07:21:10.348Z,3.38
2023-07-25T07:23:41.721Z,3.95
2023-07-25T07:26:13.104Z,3.08
2023-07-25T07:28:44.892Z,3.00
2023-07-25T07:31:17.816Z,3.20
2023-07-25T07:33:49.247Z,3.45
2023-07-25T07:36:20.654Z,2.70
2023-07-25T07:38:52.074Z,3.03
2023-07-25T07:41:23.401Z,2.67
2023-07-25T07:43:54.880Z,2.95
2023-07-25T07:46:26.391Z,3.40
2023-07-25T07:48:59.312Z,3.10
2023-07-25T07:51:31.133Z,3.15
2023-07-25T07:54:02.976Z,2.33
2023-07-25T07:56:34.494Z,2.88
2023-07-25T08:01:38.950Z,3.17
2023-07-25T08:04:13.770Z,3.20
2023-07-25T08:06:45.214Z,3.10
2023-07-25T08:09:16.702Z,3.78
2023-07-25T08:11:48.037Z,3.30
2023-07-25T08:14:19.545Z,3.10
2023-07-25T08:16:51.132Z,3.00
2023-07-25T08:19:23.286Z,3.78
2023-07-25T08:21:57.052Z,3.63
2023-07-25T08:24:28.757Z,3.50
2023-07-25T08:27:00.256Z,3.90
2023-07-25T08:29:31.882Z,3.92
2023-07-25T08:32:03.250Z,4.13
2023-07-25T08:34:34.736Z,4.07
2023-07-25T08:37:06.876Z,4.18
2023-07-25T08:39:38.371Z,3.55
2023-07-25T08:42:20.956Z,4.97
2023-07-25T08:44:55.213Z,3.47
2023-07-25T08:47:31.022Z,4.38
2023-07-25T08:50:06.932Z,3.75
2023-07-25T08:52:39.389Z,4.32
2023-07-25T08:55:11.359Z,4.20
2023-07-25T08:57:44.884Z,4.30
2023-07-25T09:00:18.235Z,3.47
2023-07-25T09:02:53.775Z,4.13
2023-07-25T09:05:27.390Z,3.53
2023-07-25T09:08:01.677Z,5.93
2023-07-25T09:10:33.860Z,4.22
2023-07-25T09:13:05.242Z,4.47
2023-07-25T09:15:36.940Z,4.72
2023-07-25T09:18:08.435Z,5.45
2023-07-25T09:20:40.841Z,5.32
2023-07-25T09:23:21.261Z,5.45
2023-07-25T09:25:54.708Z,4.25
2023-07-25T09:28:26.021Z,4.65
2023-07-25T09:30:57.593Z,4.10
2023-07-25T09:33:31.055Z,3.90
2023-07-25T09:36:02.623Z,4.53
2023-07-25T09:38:36.067Z,4.53
2023-07-25T09:41:08.497Z,3.65
2023-07-25T09:43:41.667Z,3.90
2023-07-25T09:46:13.844Z,4.30
2023-07-25T09:48:50.552Z,4.20
2023-07-25T09:51:22.331Z,4.10
2023-07-25T09:53:58.043Z,3.95
2023-07-25T09:56:30.217Z,3.70
2023-07-25T09:59:07.184Z,4.03
2023-07-25T10:01:40.912Z,4.72
2023-07-25T10:04:14.647Z,4.63
2023-07-25T10:06:46.840Z,4.40
2023-07-25T10:09:19.226Z,4.15
2023-07-25T10:11:53.231Z,4.57
2023-07-25T10:14:24.940Z,4.85
2023-07-25T10:16:56.756Z,4.38
2023-07-25T10:19:28.188Z,4.85
2023-07-25T10:22:00.231Z,4.78
2023-07-25T10:24:36.837Z,3.72
2023-07-25T10:27:13.886Z,4.00
2023-07-25T10:29:48.450Z,4.43
2023-07-25T10:32:24.107Z,4.68
2023-07-25T10:35:08.102Z,4.18
2023-07-25T10:37:46.364Z,3.80
2023-07-25T10:40:19.798Z,3.55
2023-07-25T10:43:05.800Z,4.15
2023-07-25T10:45:51.610Z,4.88
2023-07-25T10:48:37.663Z,4.78
2023-07-25T10:51:10.128Z,5.25
2023-07-25T10:53:42.442Z,5.30
2023-07-25T10:56:14.797Z,5.35
2023-07-25T10:59:09.028Z,5.57
2023-07-25T11:01:47.563Z,5.38
2023-07-25T11:04:27.418Z,6.68
2023-07-25T11:07:12.177Z,6.07
2023-07-25T11:09:47.841Z,6.03
2023-07-25T11:12:26.586Z,5.47
2023-07-25T11:14:58.395Z,5.05
2023-07-25T11:17:33.239Z,4.80
2023-07-25T11:20:18.969Z,4.93
2023-07-25T11:22:56.388Z,5.30
2023-07-25T11:25:28.580Z,5.57
2023-07-25T11:28:00.079Z,5.32
2023-07-25T11:30:31.978Z,5.45
2023-07-25T11:35:33.976Z,4.93
2023-07-25T11:38:06.128Z,5.28
2023-07-25T11:40:38.302Z,5.15
2023-07-25T11:43:16.571Z,5.20
2023-07-25T11:45:48.741Z,5.63
2023-07-25T11:48:23.146Z,5.60
2023-07-25T11:50:55.465Z,5.38
2023-07-25T11:53:30.295Z,5.05
2023-07-25T11:56:03.026Z,5.35
2023-07-25T11:58:34.554Z,5.03
2023-07-25T12:01:10.360Z,5.43
2023-07-25T12:03:50.244Z,5.65
2023-07-25T12:06:33.964Z,5.95
2023-07-25T12:09:06.097Z,5.78
2023-07-25T12:11:47.310Z,5.40
2023-07-25T12:14:18.761Z,5.60
2023-07-25T12:16:50.424Z,6.13
2023-07-25T12:19:23.609Z,6.65
2023-07-25T12:22:05.971Z,6.10
2023-07-25T12:24:44.324Z,6.25
2023-07-25T12:27:20.208Z,6.00
2023-07-25T12:29:51.740Z,6.10
2023-07-25T12:32:23.458Z,6.53
2023-07-25T12:35:02.097Z,6.13
2023-07-25T12:37:33.688Z,6.65
2023-07-25T12:40:06.427Z,7.13
2023-07-25T12:42:37.883Z,6.22
2023-07-25T12:45:11.257Z,6.72
2023-07-25T12:47:43.364Z,6.97
2023-07-25T12:50:15.208Z,6.30
2023-07-25T12:52:46.688Z,7.00
2023-07-25T12:55:18.123Z,6.45
2023-07-25T13:00:21.107Z,7.22
2023-07-25T13:02:52.759Z,7.20
2023-07-25T13:05:24.369Z,7.32
2023-07-25T13:07:56.491Z,8.43
2023-07-25T13:10:29.840Z,7.95
2023-07-25T13:13:01.994Z,8.02
2023-07-25T13:15:33.542Z,8.90
2023-07-25T13:18:04.953Z,8.50
2023-07-25T13:20:36.510Z,8.25
2023-07-25T13:23:11.819Z,8.73
2023-07-25T13:25:46.934Z,8.35
2023-07-25T13:28:19.432Z,7.68
2023-07-25T13:30:50.840Z,8.75
2023-07-25T13:33:22.514Z,8.13
2023-07-25T13:35:53.965Z,9.57
2023-07-25T13:38:25.567Z,9.15
2023-07-25T13:40:57.258Z,8.95
2023-07-25T13:43:28.896Z,9.77
2023-07-25T13:46:04.694Z,9.07
2023-07-25T13:48:36.608Z,9.10
2023-07-25T13:51:08.107Z,8.80
2023-07-25T13:53:39.645Z,8.07
2023-07-25T13:56:14.186Z,8.50
2023-07-25T13:58:46.095Z,7.15
2023-07-25T14:03:48.756Z,7.30
2023-07-25T14:06:20.321Z,6.72
2023-07-25T14:08:52.785Z,6.75
2023-07-25T14:11:25.767Z,5.78
2023-07-25T14:13:57.630Z,5.82
2023-07-25T14:16:29.353Z,5.85
2023-07-25T14:19:03.581Z,5.47
2023-07-25T14:21:35.217Z,5.57
2023-07-25T14:24:07.365Z,5.60
2023-07-25T14:26:39.956Z,5.75
2023-07-25T14:29:11.684Z,4.57
2023-07-25T14:31:43.344Z,4.35
2023-07-25T14:34:15.051Z,4.80
2023-07-25T14:36:46.599Z,5.10
2023-07-25T14:39:21.066Z,4.47
2023-07-25T14:41:52.587Z,4.57
2023-07-25T14:44:24.634Z,4.20
2023-07-25T14:46:56.102Z,4.30
2023-07-25T14:49:27.817Z,3.92
2023-07-25T14:51:59.682Z,3.72
2023-07-25T14:54:32.587Z,3.90
2023-07-25T14:57:04.241Z,3.80
2023-07-25T14:59:36.115Z,3.33
2023-07-25T15:02:08.146Z,4.07
2023-07-25T15:07:10.761Z,3.15
2023-07-25T15:09:42.354Z,3.63
2023-07-25T15:12:14.085Z,3.40
2023-07-25T15:14:45.900Z,3.67
2023-07-25T15:17:25.296Z,3.80
2023-07-25T15:20:11.376Z,3.42
2023-07-25T15:22:43.279Z,3.20
2023-07-25T15:25:14.994Z,3.20
2023-07-25T15:27:47.266Z,3.53
2023-07-25T15:30:20.252Z,3.25
2023-07-25T15:32:51.915Z,3.50
2023-07-25T15:35:27.961Z,3.58
2023-07-25T15:38:00.760Z,3.17
2023-07-25T15:40:32.766Z,3.03
2023-07-25T15:45:37.122Z,3.20
2023-07-25T15:48:08.888Z,3.10
2023-07-25T15:50:40.652Z,3.33
2023-07-25T15:53:15.270Z,3.03
2023-07-25T15:55:49.819Z,2.85
2023-07-25T15:58:21.517Z,2.85
2023-07-25T16:00:53.397Z,3.13
2023-07-25T16:03:25.175Z,3.08
2023-07-25T16:05:56.881Z,2.85
2023-07-25T16:08:28.551Z,3.15
2023-07-25T16:11:00.241Z,2.85
2023-07-25T16:13:31.887Z,3.20
2023-07-25T16:16:03.590Z,3.00
2023-07-25T16:18:35.738Z,2.95
2023-07-25T16:21:08.750Z,3.33
2023-07-25T16:23:40.436Z,3.60
2023-07-25T16:26:12.406Z,3.22
2023-07-25T16:28:44.947Z,3.00
2023-07-25T16:31:32.029Z,2.67
2023-07-25T16:34:11.106Z,2.90
2023-07-25T16:36:42.704Z,2.90
2023-07-25T16:39:17.218Z,2.90
2023-07-25T16:41:48.910Z,2.95
2023-07-25T16:44:20.456Z,2.70
2023-07-25T16:46:52.395Z,3.30
2023-07-25T16:49:24.153Z,3.05
2023-07-25T16:51:55.620Z,3.47
2023-07-25T16:54:29.557Z,3.80
2023-07-25T16:57:01.268Z,2.97
2023-07-25T16:59:32.648Z,3.58
2023-07-25T17:02:04.439Z,3.83
2023-07-25T17:04:35.899Z,3.55
2023-07-25T17:07:07.685Z,3.88
2023-07-25T17:09:39.066Z,3.80
2023-07-25T17:12:11.138Z,3.75
2023-07-25T17:14:42.480Z,3.60
2023-07-25T17:17:14.016Z,4.10
2023-07-25T17:19:45.459Z,3.40
2023-07-25T17:22:17.098Z,3.53
2023-07-25T17:24:48.500Z,3.90
2023-07-25T17:27:20.520Z,3.23
2023-07-25T17:29:53.374Z,3.50
2023-07-25T17:32:25.017Z,4.22
2023-07-25T17:34:56.566Z,3.67
2023-07-25T17:37:27.995Z,3.40
2023-07-25T17:39:59.494Z,3.60
2023-07-25T17:42:31.545Z,3.50
2023-07-25T17:45:02.800Z,3.72
2023-07-25T17:47:35.187Z,3.55
2023-07-25T17:50:06.808Z,3.95
2023-07-25T17:52:38.301Z,3.75
2023-07-25T17:55:10.200Z,3.70
2023-07-25T17:57:41.583Z,3.85
2023-07-25T18:00:13.381Z,4.40
2023-07-25T18:02:44.744Z,4.20
2023-07-25T18:05:15.829Z,4.05
2023-07-25T18:07:47.204Z,4.33
2023-07-25T18:10:18.725Z,3.92
2023-07-25T18:12:50.545Z,4.43
2023-07-25T18:15:21.887Z,3.88
2023-07-25T18:17:53.543Z,4.97
2023-07-25T18:20:24.850Z,4.68
2023-07-25T18:22:56.262Z,5.03
2023-07-25T18:25:27.686Z,4.82
2023-07-25T18:27:59.448Z,4.90
2023-07-25T18:33:02.539Z,5.22
2023-07-25T18:35:34.804Z,5.22
2023-07-25T18:38:06.183Z,5.15
2023-07-25T18:40:38.730Z,5.53
2023-07-25T18:43:10.250Z,5.40
2023-07-25T18:45:41.563Z,5.27
2023-07-25T18:48:12.960Z,5.40
2023-07-25T18:50:46.481Z,5.10
2023-07-25T18:53:17.896Z,6.57
2023-07-25T18:55:51.358Z,5.37
2023-07-25T18:58:22.983Z,6.00
2023-07-25T19:00:54.909Z,5.68
2023-07-25T19:03:29.618Z,6.70
2023-07-25T19:06:01.456Z,6.13
2023-07-25T19:08:32.828Z,6.23
2023-07-25T19:11:04.267Z,6.73
2023-07-25T19:13:35.714Z,5.88
2023-07-25T19:16:07.149Z,6.53
2023-07-25T19:18:38.650Z,5.75
2023-07-25T19:21:10.037Z,5.90
2023-07-25T19:23:42.021Z,6.40
2023-07-25T19:28:45.028Z,5.93
2023-07-25T19:31:17.369Z,6.10
2023-07-25T19:33:49.242Z,5.65
2023-07-25T19:36:20.958Z,5.30
2023-07-25T19:38:57.179Z,5.35
2023-07-25T19:41:34.240Z,4.82
2023-07-25T19:44:07.179Z,4.90
2023-07-25T19:46:42.729Z,4.88
2023-07-25T19:49:14.694Z,5.00
2023-07-25T19:51:47.278Z,5.25
2023-07-25T19:54:19.157Z,5.00
2023-07-25T19:56:53.995Z,4.55
2023-07-25T19:59:31.149Z,4.40
2023-07-25T20:02:06.466Z,4.90
2023-07-25T20:04:38.325Z,4.47
2023-07-25T20:07:15.277Z,4.40
2023-07-25T20:09:48.399Z,4.82
2023-07-25T20:12:20.906Z,6.05
2023-07-25T20:14:56.065Z,6.03
2023-07-25T20:17:30.775Z,6.38
2023-07-25T20:20:03.999Z,6.82
2023-07-25T20:22:42.519Z,6.22
2023-07-25T20:25:19.081Z,5.82
2023-07-25T20:27:53.704Z,6.10
2023-07-25T20:30:28.168Z,5.57
2023-07-25T20:33:05.840Z,5.38
2023-07-25T20:35:40.234Z,5.13
2023-07-25T20:38:12.850Z,5.10
2023-07-25T20:40:46.996Z,5.03
2023-07-25T20:43:19.944Z,5.43
2023-07-25T20:45:52.740Z,5.35
2023-07-25T20:48:26.880Z,5.35
2023-07-25T20:50:58.906Z,5.38
2023-07-25T20:53:33.369Z,5.32
2023-07-25T20:56:05.327Z,4.70
2023-07-25T20:58:40.482Z,5.00
2023-07-25T21:01:14.696Z,4.85
2023-07-25T21:04:13.014Z,4.60
2023-07-25T21:06:48.112Z,4.75
2023-07-25T21:09:19.841Z,4.65
2023-07-25T21:11:51.665Z,4.95
2023-07-25T21:14:24.721Z,4.70
2023-07-25T21:17:01.367Z,4.20
2023-07-25T21:19:41.607Z,3.70
2023-07-25T21:22:13.505Z,4.28
2023-07-25T21:24:45.271Z,4.35
2023-07-25T21:27:24.176Z,3.47
2023-07-25T21:30:00.564Z,3.63
2023-07-25T21:32:39.935Z,4.40
2023-07-25T21:35:24.753Z,3.85
2023-07-25T21:37:59.445Z,4.13
2023-07-25T21:40:34.819Z,4.43
2023-07-25T21:43:07.077Z,3.97
2023-07-25T21:45:39.091Z,3.72
2023-07-25T21:48:12.432Z,4.20
2023-07-25T21:50:44.170Z,3.67
2023-07-25T21:53:16.115Z,4.10
2023-07-25T21:58:19.033Z,3.90
2023-07-25T22:00:50.842Z,3.95
2023-07-25T22:03:26.921Z,4.30
2023-07-25T22:05:59.434Z,3.30
2023-07-25T22:08:31.391Z,3.60
2023-07-25T22:11:03.160Z,3.17
2023-07-25T22:13:34.903Z,3.55
2023-07-25T22:16:09.112Z,3.10
2023-07-25T22:18:44.442Z,3.03
2023-07-25T22:21:19.727Z,3.88
2023-07-25T22:23:54.298Z,3.80
2023-07-25T22:26:27.505Z,3.78
2023-07-25T22:28:59.796Z,3.95
2023-07-25T22:31:31.988Z,3.90
2023-07-25T22:34:07.122Z,3.58
2023-07-25T22:36:39.147Z,4.10
2023-07-25T22:39:14.094Z,3.83
2023-07-25T22:41:46.517Z,4.30
2023-07-25T22:46:49.198Z,4.22
2023-07-25T22:49:30.728Z,3.92
2023-07-25T22:52:03.567Z,3.88
2023-07-25T22:54:35.496Z,4.35
2023-07-25T22:57:07.471Z,4.03
2023-07-25T22:59:45.455Z,4.00
2023-07-25T23:02:20.983Z,3.95
2023-07-25T23:04:52.956Z,4.15
2023-07-25T23:07:25.191Z,4.20
2023-07-25T23:12:30.201Z,4.47
2023-07-25T23:15:02.153Z,5.22
2023-07-25T23:17:36.794Z,4.72
2023-07-25T23:20:09.386Z,4.82
2023-07-25T23:22:41.445Z,4.90
2023-07-25T23:25:16.099Z,4.35
2023-07-25T23:27:47.506Z,4.82
2023-07-25T23:30:19.441Z,4.35
2023-07-25T23:32:50.869Z,5.40
2023-07-25T23:35:22.558Z,7.80
2023-07-25T23:37:54.387Z,8.35
2023-07-25T23:40:26.178Z,10.20
2023-07-25T23:42:57.557Z,9.25
2023-07-25T23:45:29.217Z,9.82
2023-07-25T23:48:00.820Z,11.07
2023-07-25T23:50:33.851Z,12.13
2023-07-25T23:53:05.477Z,10.77
2023-07-25T23:55:38.405Z,9.90
2023-07-25T23:58:12.074Z,10.75
